createdAt,value
2022-08-10T00:00:58.512Z,14.70
2022-08-10T00:03:27.351Z,14.50
2022-08-10T00:05:57.806Z,15.03
2022-08-10T00:08:26.829Z,15.07
2022-08-10T00:10:56.506Z,16.60
2022-08-10T00:13:27.610Z,19.27
2022-08-10T00:15:56.517Z,25.93
2022-08-10T00:18:35.323Z,30.67
2022-08-10T00:21:08.544Z,25.87
2022-08-10T00:23:38.711Z,17.30
2022-08-10T00:26:08.674Z,16.53
2022-08-10T00:28:39.124Z,18.10
2022-08-10T00:31:08.553Z,16.63
2022-08-10T00:33:37.396Z,13.47
2022-08-10T00:36:08.262Z,11.20
2022-08-10T00:38:37.902Z,12.10
2022-08-10T00:41:07.244Z,11.30
2022-08-10T00:43:36.141Z,10.60
2022-08-10T00:46:05.086Z,8.90
2022-08-10T00:48:34.015Z,12.03
2022-08-10T00:51:03.356Z,9.20
2022-08-10T00:53:33.921Z,8.87
2022-08-10T00:56:34.872Z,9.37
2022-08-10T00:58:52.421Z,9.10
2022-08-10T01:02:08.380Z,9.23
2022-08-10T01:04:58.019Z,10.47
2022-08-10T01:07:23.619Z,10.50
2022-08-10T01:10:04.440Z,10.63
2022-08-10T01:12:41.977Z,11.17
2022-08-10T01:15:20.516Z,11.23
2022-08-10T01:17:55.387Z,11.57
2022-08-10T01:20:33.500Z,15.90
2022-08-10T01:23:34.649Z,20.33
2022-08-10T01:26:32.154Z,19.07
2022-08-10T01:29:32.612Z,20.70
2022-08-10T01:32:07.160Z,22.10
2022-08-10T01:34:42.014Z,21.93
2022-08-10T01:37:16.918Z,21.67
2022-08-10T01:39:49.983Z,23.40
2022-08-10T01:42:21.501Z,13.40
2022-08-10T01:44:56.640Z,10.23
2022-08-10T01:47:46.180Z,11.00
2022-08-10T01:50:59.573Z,9.37
2022-08-10T01:53:40.998Z,8.97
2022-08-10T01:56:13.313Z,8.33
2022-08-10T01:58:43.590Z,8.17
2022-08-10T02:01:18.138Z,9.00
2022-08-10T02:04:03.805Z,8.57
2022-08-10T02:06:37.010Z,8.07
2022-08-10T02:09:08.446Z,8.20
2022-08-10T02:12:06.965Z,8.10
2022-08-10T02:14:33.315Z,7.20
2022-08-10T02:17:09.454Z,6.80
2022-08-10T02:20:01.746Z,6.37
2022-08-10T02:22:37.834Z,6.73
2022-08-10T02:25:39.916Z,7.20
2022-08-10T02:28:00.950Z,7.30
2022-08-10T02:30:31.874Z,7.53
2022-08-10T02:33:04.968Z,7.97
2022-08-10T02:35:42.096Z,7.30
2022-08-10T02:38:57.594Z,8.73
2022-08-10T02:45:03.126Z,22.77
2022-08-10T02:45:25.640Z,23.40
2022-08-10T02:47:23.434Z,19.73
2022-08-10T02:50:00.126Z,18.90
2022-08-10T02:52:36.977Z,16.83
2022-08-10T02:55:18.603Z,14.73
2022-08-10T02:58:16.879Z,14.43
2022-08-10T03:00:46.288Z,12.67
2022-08-10T03:03:21.501Z,11.63
2022-08-10T03:05:57.026Z,11.30
2022-08-10T03:08:32.444Z,11.10
2022-08-10T03:11:04.418Z,11.37
2022-08-10T03:13:35.284Z,13.73
2022-08-10T03:16:06.751Z,13.43
2022-08-10T03:18:36.629Z,16.73
2022-08-10T03:21:11.908Z,16.20
2022-08-10T03:23:43.041Z,15.97
2022-08-10T03:26:17.515Z,14.90
2022-08-10T03:28:50.549Z,14.80
2022-08-10T03:31:19.999Z,18.20
2022-08-10T03:33:49.678Z,15.27
2022-08-10T03:36:43.167Z,16.17
2022-08-10T03:39:09.466Z,16.67
2022-08-10T03:41:53.615Z,16.07
2022-08-10T03:44:30.046Z,17.30
2022-08-10T03:47:02.143Z,16.00
2022-08-10T03:49:32.620Z,15.93
2022-08-10T03:52:03.577Z,15.97
2022-08-10T03:54:32.692Z,12.70
2022-08-10T03:57:01.644Z,9.90
2022-08-10T03:59:31.686Z,10.10
2022-08-10T04:02:42.093Z,10.97
2022-08-10T04:04:50.697Z,10.03
2022-08-10T04:07:20.954Z,9.77
2022-08-10T04:09:54.275Z,11.00
2022-08-10T04:12:25.133Z,10.47
2022-08-10T04:14:54.138Z,10.03
2022-08-10T04:17:59.507Z,17.03
2022-08-10T04:20:19.796Z,18.40
2022-08-10T04:22:53.588Z,10.47
2022-08-10T04:25:24.301Z,10.93
2022-08-10T04:27:54.531Z,13.00
2022-08-10T04:30:23.811Z,10.87
2022-08-10T04:32:59.721Z,10.43
2022-08-10T07:45:49.191Z,5.80
2022-08-10T07:48:21.516Z,6.60
2022-08-10T07:50:55.378Z,7.60
2022-08-10T07:53:29.393Z,6.50
2022-08-10T07:56:04.785Z,6.37
2022-08-10T07:58:52.704Z,6.47
2022-08-10T08:01:29.335Z,6.67
2022-08-10T08:04:05.815Z,6.77
2022-08-10T08:06:42.549Z,6.80
2022-08-10T08:09:12.081Z,8.40
2022-08-10T08:11:44.002Z,6.97
2022-08-10T08:14:14.511Z,6.23
2022-08-10T08:16:48.702Z,8.03
2022-08-10T08:19:32.844Z,6.90
2022-08-10T08:24:05.427Z,6.03
2022-08-10T08:25:18.129Z,6.43
2022-08-10T08:27:53.053Z,6.53
2022-08-10T08:30:27.773Z,10.17
2022-08-10T08:33:00.599Z,7.90
2022-08-10T08:35:30.450Z,7.83
2022-08-10T08:38:33.202Z,9.40
2022-08-10T08:40:56.146Z,11.13
2022-08-10T08:43:43.759Z,8.10
2022-08-10T08:46:32.378Z,6.07
2022-08-10T08:50:04.444Z,10.00
2022-08-10T08:52:40.795Z,8.60
2022-08-10T08:56:03.612Z,8.80
2022-08-10T08:58:27.887Z,9.30
2022-08-10T09:01:05.264Z,7.63
2022-08-10T09:03:55.342Z,7.40
2022-08-10T09:07:07.535Z,7.17
2022-08-10T09:10:05.179Z,8.20
2022-08-10T09:12:57.461Z,6.13
2022-08-10T09:15:40.563Z,5.50
2022-08-10T09:18:19.396Z,7.60
2022-08-10T09:20:52.630Z,7.17
2022-08-10T09:24:04.919Z,6.57
2022-08-10T09:26:22.321Z,6.07
2022-08-10T09:29:11.565Z,6.17
2022-08-10T09:33:06.214Z,7.27
2022-08-10T09:36:23.357Z,7.07
2022-08-10T09:38:02.844Z,6.60
2022-08-10T09:40:59.813Z,13.97
2022-08-10T09:43:45.099Z,8.60
2022-08-10T09:46:27.488Z,7.30
2022-08-10T09:49:52.999Z,6.57
2022-08-10T09:52:23.826Z,10.30
2022-08-10T09:55:18.543Z,9.30
2022-08-10T09:58:02.568Z,5.90
2022-08-10T10:00:39.600Z,8.93
2022-08-10T10:03:18.291Z,5.73
2022-08-10T10:05:55.205Z,10.80
2022-08-10T10:08:32.680Z,6.17
2022-08-10T10:11:16.386Z,7.00
2022-08-10T10:14:02.933Z,6.13
2022-08-10T10:17:03.511Z,4.30
2022-08-10T10:19:50.130Z,6.17
2022-08-10T10:22:48.580Z,7.40
2022-08-10T10:25:24.891Z,5.83
2022-08-10T10:28:59.768Z,5.70
2022-08-10T10:31:31.766Z,5.30
2022-08-10T10:34:11.867Z,5.53
2022-08-10T10:36:43.527Z,5.50
2022-08-10T10:39:15.454Z,7.67
2022-08-10T10:41:57.327Z,7.00
2022-08-10T10:44:43.329Z,6.93
2022-08-10T10:47:31.268Z,5.87
2022-08-10T10:50:07.989Z,4.37
2022-08-10T10:52:46.674Z,4.57
2022-08-10T10:55:20.650Z,5.70
2022-08-10T10:58:01.175Z,6.73
2022-08-10T11:00:40.626Z,5.43
2022-08-10T11:03:29.435Z,4.90
2022-08-10T11:06:11.556Z,9.40
2022-08-10T11:08:51.998Z,10.47
2022-08-10T11:12:00.568Z,9.23
2022-08-10T11:14:29.672Z,6.97
2022-08-10T11:17:04.948Z,4.77
2022-08-10T11:20:02.179Z,4.53
2022-08-10T11:22:37.831Z,6.50
2022-08-10T11:25:13.351Z,4.53
2022-08-10T11:28:08.146Z,4.60
2022-08-10T11:30:44.991Z,5.97
2022-08-10T11:33:32.514Z,6.53
2022-08-10T11:36:06.723Z,7.40
2022-08-10T11:39:11.084Z,6.27
2022-08-10T11:42:11.555Z,6.73
2022-08-10T11:44:35.806Z,5.87
2022-08-10T11:47:09.710Z,5.30
2022-08-10T11:49:46.795Z,5.43
2022-08-10T11:52:21.738Z,6.67
2022-08-10T11:54:55.163Z,6.00
2022-08-10T11:57:54.183Z,6.33
2022-08-10T12:00:18.746Z,6.43
2022-08-10T12:02:53.802Z,5.90
2022-08-10T12:05:46.805Z,7.00
2022-08-10T12:10:02.677Z,7.43
2022-08-10T12:11:29.325Z,6.03
2022-08-10T12:14:22.809Z,5.90
2022-08-10T12:17:00.713Z,8.97
2022-08-10T12:19:59.552Z,6.53
2022-08-10T12:22:33.970Z,6.27
2022-08-10T12:25:08.883Z,6.07
2022-08-10T12:28:01.575Z,5.33
2022-08-10T12:30:37.646Z,6.00
2022-08-10T12:33:12.016Z,6.03
2022-08-10T12:36:08.242Z,5.97
2022-08-10T12:38:47.828Z,5.37
2022-08-10T12:41:44.581Z,4.60
2022-08-10T12:44:42.110Z,8.27
2022-08-10T12:47:23.529Z,4.60
2022-08-10T12:50:30.009Z,5.93
2022-08-10T12:52:58.386Z,5.53
2022-08-10T12:55:30.206Z,5.37
2022-08-10T12:58:02.042Z,4.90
2022-08-10T13:01:15.596Z,4.60
2022-08-10T13:04:23.163Z,5.10
2022-08-10T13:06:46.378Z,5.53
2022-08-10T13:09:16.359Z,5.57
2022-08-10T13:12:36.796Z,4.87
2022-08-10T13:14:53.330Z,8.67
2022-08-10T13:17:39.735Z,4.90
2022-08-10T13:20:22.519Z,5.00
2022-08-10T13:22:55.170Z,5.87
2022-08-10T13:25:28.852Z,6.80
2022-08-10T13:28:34.763Z,8.60
2022-08-10T13:30:52.754Z,6.73
2022-08-10T13:34:39.343Z,7.93
2022-08-10T13:36:24.879Z,5.73
2022-08-10T13:38:57.485Z,5.37
2022-08-10T13:41:29.630Z,5.43
2022-08-10T13:44:02.231Z,5.80
2022-08-10T13:46:33.283Z,5.00
2022-08-10T13:49:06.078Z,5.50
2022-08-10T13:51:56.795Z,6.07
2022-08-10T13:54:29.719Z,4.67
2022-08-10T13:57:00.548Z,5.63
2022-08-10T14:00:33.763Z,5.13
2022-08-10T14:02:30.079Z,5.07
2022-08-10T14:05:00.427Z,9.07
2022-08-10T14:08:00.525Z,6.13
2022-08-10T14:11:08.927Z,5.97
2022-08-10T14:13:29.213Z,7.27
2022-08-10T14:16:00.300Z,5.87
2022-08-10T14:18:35.436Z,5.57
2022-08-10T14:21:04.982Z,6.10
2022-08-10T14:23:35.613Z,5.40
2022-08-10T14:26:09.155Z,5.27
2022-08-10T14:28:44.481Z,6.17
2022-08-10T14:31:36.151Z,5.73
2022-08-10T14:34:10.315Z,5.80
2022-08-10T14:36:45.671Z,5.83
2022-08-10T14:39:23.785Z,5.63
2022-08-10T14:42:04.500Z,5.53
2022-08-10T14:44:46.476Z,4.83
2022-08-10T14:47:52.418Z,5.40
2022-08-10T14:50:10.236Z,7.97
2022-08-10T14:52:59.074Z,8.10
2022-08-10T14:55:28.958Z,8.27
2022-08-10T14:58:19.646Z,6.27
2022-08-10T15:00:47.493Z,6.33
2022-08-10T15:03:59.544Z,6.50
2022-08-10T15:06:17.150Z,5.73
2022-08-10T15:08:49.101Z,6.50
2022-08-10T15:12:15.572Z,7.30
2022-08-10T15:14:41.868Z,7.23
2022-08-10T15:16:59.668Z,8.17
2022-08-10T15:20:03.512Z,9.67
2022-08-10T15:22:37.742Z,12.23
2022-08-10T15:25:19.089Z,12.40
2022-08-10T15:27:54.535Z,11.97
2022-08-10T15:30:32.462Z,13.67
2022-08-10T15:34:02.103Z,13.67
2022-08-10T15:36:29.903Z,10.57
2022-08-10T15:39:03.091Z,13.37
2022-08-10T15:41:57.378Z,12.20
2022-08-10T15:44:39.135Z,12.80
2022-08-10T15:47:12.481Z,25.83
2022-08-10T15:49:53.814Z,17.13
2022-08-10T15:53:01.320Z,16.80
2022-08-10T15:55:42.884Z,15.30
2022-08-10T15:58:40.381Z,8.80
2022-08-10T16:02:14.958Z,8.17
2022-08-10T16:04:08.612Z,8.63
2022-08-10T16:06:43.245Z,8.33
2022-08-10T16:10:22.601Z,9.10
2022-08-10T16:12:16.398Z,11.20
2022-08-10T16:14:50.699Z,10.50
2022-08-10T16:17:22.255Z,9.87
2022-08-10T16:19:55.073Z,11.77
2022-08-10T16:22:35.714Z,10.37
2022-08-10T16:25:15.652Z,9.17
2022-08-10T16:27:47.312Z,11.73
2022-08-10T16:30:16.646Z,10.27
2022-08-10T16:32:47.509Z,10.47
2022-08-10T16:35:19.490Z,10.00
2022-08-10T16:37:58.637Z,9.13
2022-08-10T16:40:30.598Z,9.03
2022-08-10T16:43:03.695Z,9.23
2022-08-10T16:45:36.025Z,9.70
2022-08-10T16:48:06.938Z,10.27
2022-08-10T16:50:41.955Z,9.37
2022-08-10T16:53:16.581Z,9.20
2022-08-10T16:55:50.626Z,8.33
2022-08-10T16:58:27.701Z,8.40
2022-08-10T17:01:03.199Z,8.90
2022-08-10T17:04:06.658Z,8.80
2022-08-10T17:06:53.868Z,9.40
2022-08-10T17:09:30.149Z,10.00
2022-08-10T17:12:00.922Z,9.20
2022-08-10T17:14:32.019Z,8.90
2022-08-10T17:17:05.999Z,9.20
2022-08-10T17:19:39.301Z,8.93
2022-08-10T17:22:14.530Z,9.47
2022-08-10T17:24:47.917Z,8.80
2022-08-10T17:28:21.160Z,8.20
2022-08-10T17:30:15.770Z,8.43
2022-08-10T17:32:54.254Z,9.27
2022-08-10T17:35:25.910Z,9.23
2022-08-10T17:38:02.536Z,9.60
2022-08-10T17:40:33.620Z,10.33
2022-08-10T17:43:03.980Z,9.70
2022-08-10T17:45:54.268Z,8.60
2022-08-10T17:48:30.722Z,8.83
2022-08-10T17:51:00.861Z,9.97
2022-08-10T17:53:39.628Z,9.97
2022-08-10T17:56:10.898Z,10.03
2022-08-10T17:58:45.740Z,9.63
2022-08-10T18:01:41.842Z,9.57
2022-08-10T18:04:16.534Z,10.50
2022-08-10T18:06:46.850Z,12.63
2022-08-10T18:09:31.193Z,10.87
2022-08-10T18:12:30.666Z,10.73
2022-08-10T18:15:06.337Z,13.23
2022-08-10T18:17:41.224Z,17.57
2022-08-10T18:20:11.752Z,20.97
2022-08-10T18:22:45.352Z,22.07
2022-08-10T18:25:20.613Z,18.73
2022-08-10T18:28:01.254Z,15.23
2022-08-10T18:30:36.486Z,13.70
2022-08-10T18:33:12.470Z,15.80
2022-08-10T18:35:43.058Z,17.17
2022-08-10T18:38:13.196Z,21.93
2022-08-10T18:40:46.040Z,33.87
2022-08-10T18:44:06.585Z,53.13
2022-08-10T18:46:32.031Z,49.60
2022-08-10T18:49:07.117Z,33.37
2022-08-10T18:51:46.710Z,35.37
2022-08-10T18:54:38.940Z,38.63
2022-08-10T18:57:19.024Z,38.57
2022-08-10T19:00:07.432Z,36.13
2022-08-10T19:03:04.226Z,45.93
2022-08-10T19:05:54.009Z,13.57
2022-08-10T19:08:48.849Z,12.63
2022-08-10T19:11:30.797Z,11.60
2022-08-10T19:14:06.877Z,11.30
2022-08-10T19:16:42.169Z,11.17
2022-08-10T19:19:30.480Z,12.50
2022-08-10T19:22:06.607Z,11.90
2022-08-10T19:25:00.985Z,13.10
2022-08-10T19:27:43.530Z,11.97
2022-08-10T19:30:14.847Z,11.37
2022-08-10T19:32:56.253Z,11.73
2022-08-10T19:36:03.735Z,11.93
2022-08-10T19:38:33.723Z,13.77
2022-08-10T19:41:12.197Z,33.23
2022-08-10T19:44:00.231Z,46.43
2022-08-10T19:46:40.827Z,51.33
2022-08-10T19:49:39.734Z,36.37
2022-08-10T19:52:15.729Z,48.37
2022-08-10T19:55:15.072Z,50.73
2022-08-10T19:57:53.521Z,28.87
2022-08-10T20:00:28.591Z,15.43
2022-08-10T20:03:11.888Z,15.10
2022-08-10T20:06:19.495Z,15.30
2022-08-10T20:08:45.804Z,13.00
2022-08-10T20:11:44.601Z,13.00
2022-08-10T20:14:22.843Z,12.90
2022-08-10T20:16:56.381Z,11.87
2022-08-10T20:19:53.259Z,11.60
2022-08-10T20:22:29.402Z,11.80
2022-08-10T20:25:04.128Z,11.53
2022-08-10T20:27:59.858Z,12.80
2022-08-10T20:30:32.743Z,12.03
2022-08-10T20:33:09.362Z,11.13
2022-08-10T20:35:51.859Z,11.37
2022-08-10T20:38:27.191Z,12.47
2022-08-10T20:41:07.866Z,12.80
2022-08-10T20:43:47.267Z,12.73
2022-08-10T20:46:31.699Z,13.07
2022-08-10T20:49:05.758Z,14.03
2022-08-10T20:51:57.264Z,14.10
2022-08-10T20:54:34.735Z,12.90
2022-08-10T20:57:55.411Z,13.90
2022-08-10T21:00:42.556Z,13.20
2022-08-10T21:03:33.709Z,13.67
2022-08-10T21:06:41.149Z,14.40
2022-08-10T21:09:29.580Z,14.20
2022-08-10T21:13:05.983Z,14.27
2022-08-10T21:15:55.664Z,13.93
2022-08-10T21:18:45.119Z,13.60
2022-08-10T21:21:41.165Z,13.10
2022-08-10T21:24:25.765Z,13.57
2022-08-10T21:27:08.443Z,13.33
2022-08-10T21:29:55.921Z,13.40
2022-08-10T21:32:50.781Z,14.50
2022-08-10T21:35:37.431Z,14.70
2022-08-10T21:38:13.146Z,14.70
2022-08-10T21:41:18.603Z,14.37
2022-08-10T21:44:24.774Z,15.43
2022-08-10T21:47:38.051Z,13.80
